createdAt,value
2022-10-11T00:01:00.870Z,7.93
2022-10-11T00:03:29.064Z,4.78
2022-10-11T00:05:58.157Z,4.78
2022-10-11T00:08:26.141Z,6.03
2022-10-11T00:11:13.019Z,7.57
2022-10-11T00:13:41.123Z,5.43
2022-10-11T00:16:12.512Z,5.32
2022-10-11T00:18:41.183Z,5.57
2022-10-11T00:21:17.161Z,6.03
2022-10-11T00:23:45.229Z,6.85
2022-10-11T00:26:14.546Z,8.02
2022-10-11T00:28:43.439Z,5.75
2022-10-11T00:31:14.284Z,5.90
2022-10-11T00:33:44.298Z,5.05
2022-10-11T00:36:15.184Z,4.43
2022-10-11T00:38:44.513Z,5.80
2022-10-11T00:41:15.305Z,5.57
2022-10-11T00:43:43.898Z,6.97
2022-10-11T00:46:14.866Z,5.45
2022-10-11T00:48:50.595Z,6.80
2022-10-11T00:51:41.575Z,5.85
2022-10-11T00:54:14.874Z,5.00
2022-10-11T00:56:44.926Z,7.47
2022-10-11T00:59:25.524Z,7.60
2022-10-11T01:01:54.174Z,7.63
2022-10-11T01:04:42.833Z,5.95
2022-10-11T01:07:11.820Z,4.85
2022-10-11T01:09:40.031Z,5.22
2022-10-11T01:12:20.118Z,6.50
2022-10-11T01:14:55.769Z,6.65
2022-10-11T01:18:00.674Z,7.20
2022-10-11T01:20:44.574Z,7.15
2022-10-11T01:23:55.859Z,6.22
2022-10-11T01:26:54.772Z,7.40
2022-10-11T01:29:38.144Z,5.85
2022-10-11T01:32:15.958Z,6.88
2022-10-11T01:35:01.686Z,11.60
2022-10-11T01:37:47.592Z,8.90
2022-10-11T01:40:27.538Z,7.00
2022-10-11T01:42:58.242Z,7.07
2022-10-11T01:45:27.287Z,8.63
2022-10-11T01:48:08.680Z,7.47
2022-10-11T01:50:45.487Z,8.63
2022-10-11T01:53:25.146Z,7.10
2022-10-11T01:59:29.085Z,6.10
2022-10-11T02:04:53.391Z,5.05
2022-10-11T02:07:34.569Z,4.53
2022-10-11T02:10:29.462Z,7.60
2022-10-11T02:13:19.597Z,4.93
2022-10-11T02:15:50.126Z,6.53
2022-10-11T02:18:24.634Z,5.05
2022-10-11T02:20:54.477Z,8.25
2022-10-11T02:23:31.481Z,6.22
2022-10-11T02:26:01.106Z,6.50
2022-10-11T02:28:33.134Z,5.93
2022-10-11T02:31:05.059Z,5.88
2022-10-11T02:33:41.486Z,5.43
2022-10-11T02:36:22.912Z,5.68
2022-10-11T02:38:56.737Z,6.28
2022-10-11T02:41:32.300Z,5.65
2022-10-11T02:44:07.827Z,4.57
2022-10-11T02:46:38.413Z,4.93
2022-10-11T02:49:09.381Z,5.63
2022-10-11T02:51:37.393Z,4.80
2022-10-11T02:54:05.989Z,4.03
2022-10-11T02:56:34.213Z,5.78
2022-10-11T02:59:02.497Z,5.20
2022-10-11T03:01:30.648Z,6.47
2022-10-11T03:04:03.614Z,5.13
2022-10-11T03:06:31.716Z,4.63
2022-10-11T03:08:59.916Z,7.45
2022-10-11T03:11:28.128Z,7.72
2022-10-11T03:13:56.352Z,6.20
2022-10-11T03:16:24.433Z,13.63
2022-10-11T03:18:55.401Z,5.10
2022-10-11T03:21:25.660Z,5.90
2022-10-11T08:56:49.294Z,11.35
2022-10-11T08:59:33.706Z,12.27
2022-10-11T09:02:49.173Z,9.93
2022-10-11T09:05:21.367Z,9.32
2022-10-11T09:08:19.014Z,11.10
2022-10-11T09:11:06.416Z,7.13
2022-10-11T09:14:07.932Z,8.40
2022-10-11T09:16:59.221Z,10.45
2022-10-11T09:19:52.389Z,6.85
2022-10-11T09:22:38.169Z,8.13
2022-10-11T09:25:06.504Z,8.48
2022-10-11T09:28:01.706Z,8.20
2022-10-11T09:30:58.717Z,10.27
2022-10-11T09:33:49.341Z,9.23
2022-10-11T09:36:42.350Z,13.48
2022-10-11T09:39:20.759Z,11.38
2022-10-11T09:42:06.189Z,10.27
2022-10-11T09:44:38.971Z,9.68
2022-10-11T09:47:08.749Z,9.95
2022-10-11T09:49:45.631Z,9.93
2022-10-11T09:52:18.298Z,10.70
2022-10-11T09:55:06.967Z,11.38
2022-10-11T10:00:34.471Z,9.10
2022-10-11T10:03:05.353Z,9.30
2022-10-11T10:05:41.030Z,10.10
2022-10-11T10:08:12.077Z,10.65
2022-10-11T10:11:23.411Z,13.38
2022-10-11T10:13:59.782Z,10.07
2022-10-11T10:16:33.447Z,13.20
2022-10-11T10:19:05.067Z,10.50
2022-10-11T10:21:44.388Z,11.40
2022-10-11T10:24:35.854Z,11.43
2022-10-11T10:27:09.841Z,14.50
2022-10-11T10:29:38.844Z,10.40
2022-10-11T10:32:27.984Z,13.30
2022-10-11T10:35:04.046Z,11.52
2022-10-11T10:37:58.090Z,15.90
2022-10-11T10:40:44.571Z,12.27
2022-10-11T10:43:18.991Z,13.35
2022-10-11T10:46:05.654Z,10.88
2022-10-11T10:49:34.892Z,12.63
2022-10-11T10:53:03.578Z,13.10
2022-10-11T10:55:45.308Z,11.30
2022-10-11T10:58:26.075Z,11.98
2022-10-11T11:01:03.072Z,12.50
2022-10-11T11:03:43.926Z,12.57
2022-10-11T11:06:40.413Z,10.52
2022-10-11T11:09:15.270Z,9.88
2022-10-11T11:12:11.898Z,10.27
2022-10-11T11:14:49.283Z,10.25
2022-10-11T11:17:45.341Z,9.48
2022-10-11T11:20:34.332Z,11.27
2022-10-11T11:23:12.650Z,10.67
2022-10-11T11:25:55.257Z,12.70
2022-10-11T11:29:06.924Z,13.52
2022-10-11T11:32:21.193Z,12.63
2022-10-11T11:34:55.728Z,11.00
2022-10-11T11:37:32.952Z,9.35
2022-10-11T11:40:17.334Z,11.05
2022-10-11T11:42:53.281Z,11.40
2022-10-11T11:45:24.068Z,9.57
2022-10-11T11:48:01.264Z,11.15
2022-10-11T11:50:36.187Z,11.73
2022-10-11T11:53:12.084Z,13.27
2022-10-11T11:55:53.106Z,13.75
2022-10-11T11:58:45.988Z,10.82
2022-10-11T12:01:30.263Z,12.57
2022-10-11T12:04:10.314Z,11.82
2022-10-11T12:06:47.904Z,10.93
2022-10-11T12:09:27.590Z,9.68
2022-10-11T12:12:02.305Z,10.48
2022-10-11T12:14:40.260Z,13.65
2022-10-11T12:17:23.578Z,10.15
2022-10-11T12:20:14.809Z,11.43
2022-10-11T12:23:01.713Z,13.70
2022-10-11T12:25:31.163Z,12.70
2022-10-11T12:28:01.890Z,12.38
2022-10-11T12:30:49.032Z,12.20
2022-10-11T12:33:25.208Z,11.85
2022-10-11T12:35:55.990Z,13.30
2022-10-11T12:38:29.373Z,13.05
2022-10-11T12:41:23.202Z,13.40
2022-10-11T12:43:51.154Z,12.52
2022-10-11T12:46:34.024Z,12.35
2022-10-11T12:49:17.756Z,12.98
2022-10-11T12:51:55.961Z,14.68
2022-10-11T12:54:41.722Z,14.98
2022-10-11T12:57:13.669Z,15.20
2022-10-11T12:59:46.016Z,13.27
2022-10-11T13:02:43.789Z,17.10
2022-10-11T13:05:49.727Z,15.45
2022-10-11T13:08:29.441Z,14.73
2022-10-11T13:11:03.925Z,13.77
2022-10-11T13:13:45.139Z,14.52
2022-10-11T13:16:20.216Z,13.40
2022-10-11T13:18:58.350Z,15.82
2022-10-11T13:21:33.641Z,13.77
2022-10-11T13:24:24.364Z,13.77
2022-10-11T13:26:56.470Z,13.85
2022-10-11T13:29:45.988Z,14.88
2022-10-11T13:32:24.823Z,13.20
2022-10-11T13:35:07.633Z,13.90
2022-10-11T13:37:45.903Z,13.30
2022-10-11T13:40:16.586Z,14.13
2022-10-11T13:42:46.046Z,16.45
2022-10-11T13:45:16.901Z,15.52
2022-10-11T13:47:47.975Z,14.75
2022-10-11T13:50:27.035Z,14.57
2022-10-11T13:53:06.949Z,15.25
2022-10-11T13:58:26.967Z,18.02
2022-10-11T14:00:59.610Z,15.52
2022-10-11T14:03:46.348Z,14.23
2022-10-11T14:06:14.354Z,14.40
2022-10-11T14:08:51.501Z,16.40
2022-10-11T14:11:35.441Z,14.15
2022-10-11T14:14:29.263Z,14.52
2022-10-11T14:17:13.555Z,15.55
2022-10-11T14:19:42.834Z,15.55
2022-10-11T14:22:17.149Z,12.75
2022-10-11T14:24:49.234Z,12.85
2022-10-11T14:27:23.932Z,14.27
2022-10-11T14:30:19.832Z,15.15
2022-10-11T14:32:42.965Z,15.63
2022-10-11T14:35:24.868Z,15.40
2022-10-11T14:37:54.962Z,13.20
2022-10-11T14:40:30.199Z,15.45
2022-10-11T14:42:58.751Z,13.52
2022-10-11T14:45:26.991Z,13.50
2022-10-11T14:47:56.577Z,13.65
2022-10-11T14:50:52.070Z,15.20
2022-10-11T14:53:20.145Z,14.70
2022-10-11T14:55:48.924Z,15.40
2022-10-11T14:58:19.593Z,11.85
2022-10-11T15:00:47.826Z,13.80
2022-10-11T15:03:15.852Z,12.68
2022-10-11T15:05:43.967Z,15.25
2022-10-11T15:08:13.332Z,16.42
2022-10-11T15:10:42.208Z,11.48
2022-10-11T15:13:10.979Z,12.18
2022-10-11T15:15:41.843Z,13.57
2022-10-11T15:18:14.263Z,12.98
2022-10-11T15:20:46.402Z,12.60
2022-10-11T15:23:14.831Z,14.20
2022-10-11T15:25:43.453Z,12.15
2022-10-11T15:28:36.110Z,13.85
2022-10-11T15:31:04.266Z,11.38
2022-10-11T15:33:32.447Z,17.92
2022-10-11T15:36:00.619Z,16.98
2022-10-11T15:38:28.690Z,12.57
2022-10-11T15:40:56.748Z,14.50
2022-10-11T15:43:26.507Z,13.15
2022-10-11T15:48:26.933Z,13.60
2022-10-11T15:50:56.711Z,17.35
2022-10-11T15:53:29.367Z,16.50
2022-10-11T15:56:05.511Z,15.00
2022-10-11T15:58:37.136Z,23.38
2022-10-11T16:01:15.613Z,24.40
2022-10-11T16:03:44.064Z,26.20
2022-10-11T16:06:12.999Z,31.15
2022-10-11T16:08:41.795Z,25.42
2022-10-11T16:11:10.829Z,29.90
2022-10-11T16:13:40.068Z,46.50
2022-10-11T16:16:10.169Z,26.60
2022-10-11T16:18:39.072Z,23.13
2022-10-11T16:21:10.101Z,41.45
2022-10-11T16:23:39.899Z,27.92
2022-10-11T16:26:12.493Z,28.33
2022-10-11T16:28:40.828Z,19.05
2022-10-11T16:31:19.022Z,24.40
2022-10-11T16:33:47.434Z,19.60
2022-10-11T16:36:33.184Z,19.05
2022-10-11T16:39:03.802Z,15.20
2022-10-11T16:41:31.873Z,13.80
2022-10-11T16:44:00.174Z,18.77
2022-10-11T16:46:28.152Z,19.92
2022-10-11T16:48:56.793Z,13.48
2022-10-11T16:51:26.555Z,17.67
2022-10-11T16:53:54.577Z,16.38
2022-10-11T16:56:25.605Z,17.67
2022-10-11T16:58:56.058Z,15.50
2022-10-11T17:01:24.423Z,15.02
2022-10-11T17:03:53.487Z,16.25
2022-10-11T17:06:21.741Z,17.10
2022-10-11T17:08:50.600Z,15.70
2022-10-11T17:11:19.532Z,13.40
2022-10-11T17:13:47.659Z,16.07
2022-10-11T17:16:17.026Z,15.70
2022-10-11T17:18:45.058Z,15.95
2022-10-11T17:21:17.243Z,16.10
2022-10-11T17:23:47.368Z,20.25
2022-10-11T17:26:19.225Z,16.20
2022-10-11T17:28:48.305Z,17.17
2022-10-11T17:31:16.597Z,14.98
2022-10-11T17:33:44.595Z,18.08
2022-10-11T17:36:39.537Z,16.35
2022-10-11T17:39:13.545Z,18.60
2022-10-11T17:41:42.735Z,17.60
2022-10-11T17:44:11.739Z,36.42
2022-10-11T17:46:40.673Z,18.43
2022-10-11T17:49:09.502Z,18.37
2022-10-11T17:51:40.292Z,17.63
2022-10-11T17:54:13.444Z,15.60
2022-10-11T17:56:42.703Z,23.27
2022-10-11T17:59:17.574Z,20.30
2022-10-11T18:01:45.599Z,16.38
2022-10-11T18:04:17.236Z,20.52
2022-10-11T18:06:47.576Z,20.65
2022-10-11T18:09:18.793Z,18.80
2022-10-11T18:11:48.247Z,15.20
2022-10-11T18:14:16.695Z,16.60
2022-10-11T18:16:44.604Z,20.42
2022-10-11T18:19:14.512Z,16.23
2022-10-11T18:24:17.697Z,24.58
2022-10-11T18:26:47.170Z,25.67
2022-10-11T18:29:17.325Z,21.45
2022-10-11T18:31:45.498Z,20.83
2022-10-11T18:34:14.490Z,23.17
2022-10-11T18:36:43.350Z,22.50
2022-10-11T18:39:14.875Z,18.30
2022-10-11T18:41:45.024Z,18.27
2022-10-11T18:44:19.589Z,17.95
2022-10-11T18:46:47.560Z,19.35
2022-10-11T18:49:15.723Z,15.48
2022-10-11T18:51:47.253Z,16.42
2022-10-11T18:54:20.101Z,15.65
2022-10-11T18:56:50.235Z,15.07
2022-10-11T18:59:18.305Z,19.23
2022-10-11T19:01:46.771Z,17.48
2022-10-11T19:04:19.235Z,17.90
2022-10-11T19:06:50.022Z,17.30
2022-10-11T19:09:24.976Z,17.58
2022-10-11T19:11:58.740Z,16.20
2022-10-11T19:14:30.766Z,13.48
2022-10-11T19:16:58.924Z,18.67
2022-10-11T19:19:30.931Z,19.02
2022-10-11T19:21:59.469Z,16.58
2022-10-11T19:24:30.840Z,15.55
2022-10-11T19:27:02.501Z,15.00
2022-10-11T19:29:31.102Z,16.65
2022-10-11T19:32:01.357Z,16.33
2022-10-11T19:34:33.131Z,16.45
2022-10-11T19:37:05.367Z,15.48
2022-10-11T19:39:51.785Z,17.00
2022-10-11T19:42:19.719Z,16.30
2022-10-11T19:44:47.644Z,15.13
2022-10-11T19:47:17.821Z,17.08
2022-10-11T19:49:45.750Z,20.50
2022-10-11T19:52:29.700Z,16.13
2022-10-11T19:54:59.257Z,18.80
2022-10-11T19:57:27.257Z,17.90
2022-10-11T19:59:55.211Z,14.68
2022-10-11T20:02:24.137Z,17.95
2022-10-11T20:04:53.153Z,16.07
2022-10-11T20:07:21.941Z,16.48
2022-10-11T20:09:56.250Z,17.67
2022-10-11T20:12:24.410Z,17.23
2022-10-11T20:14:52.323Z,17.75
2022-10-11T20:17:20.485Z,16.17
2022-10-11T20:19:48.483Z,17.98
2022-10-11T20:22:16.518Z,20.08
2022-10-11T20:24:44.792Z,17.30
2022-10-11T20:27:13.081Z,16.17
2022-10-11T20:29:41.066Z,17.05
2022-10-11T20:32:09.246Z,20.23
2022-10-11T20:34:40.068Z,19.45
2022-10-11T20:37:07.973Z,16.10
2022-10-11T20:39:37.032Z,18.05
2022-10-11T20:42:05.081Z,15.32
2022-10-11T20:44:33.256Z,22.88
2022-10-11T20:47:04.077Z,20.42
2022-10-11T20:49:32.848Z,19.33
2022-10-11T20:52:02.145Z,16.60
2022-10-11T20:54:31.230Z,15.68
2022-10-11T20:56:59.756Z,18.45
2022-10-11T20:59:29.725Z,19.15
2022-10-11T21:01:57.765Z,19.15
2022-10-11T21:04:25.724Z,23.25
2022-10-11T21:06:53.806Z,19.48
2022-10-11T21:09:21.945Z,22.83
2022-10-11T21:11:49.903Z,22.60
2022-10-11T21:14:18.269Z,20.52
2022-10-11T21:16:46.241Z,20.02
2022-10-11T21:19:15.938Z,19.15
2022-10-11T21:21:53.320Z,24.92
2022-10-11T21:24:22.314Z,19.75
2022-10-11T21:26:50.520Z,19.00
2022-10-11T21:29:18.765Z,23.10
2022-10-11T21:31:46.722Z,22.27
2022-10-11T21:34:14.943Z,17.00
2022-10-11T21:36:44.207Z,18.05
2022-10-11T21:39:12.261Z,15.13
2022-10-11T21:41:42.984Z,15.32
2022-10-11T21:44:11.167Z,17.95
2022-10-11T21:49:29.237Z,13.77
2022-10-11T21:51:57.869Z,17.58
2022-10-11T21:54:25.846Z,14.68
2022-10-11T21:56:55.480Z,18.10
2022-10-11T21:59:23.548Z,15.63
2022-10-11T22:01:51.533Z,13.95
2022-10-11T22:04:20.565Z,17.23
2022-10-11T22:06:48.593Z,13.40
2022-10-11T22:09:16.552Z,16.85
2022-10-11T22:11:46.229Z,16.25
2022-10-11T22:14:14.154Z,15.68
2022-10-11T22:16:42.195Z,15.68
2022-10-11T22:19:11.783Z,16.50
2022-10-11T22:21:44.752Z,13.30
2022-10-11T22:24:13.360Z,13.15
2022-10-11T22:26:41.511Z,15.40
2022-10-11T22:29:09.629Z,14.70
2022-10-11T22:31:37.694Z,12.45
2022-10-11T22:34:05.829Z,15.65
2022-10-11T22:36:34.406Z,14.60
2022-10-11T22:39:08.200Z,15.40
2022-10-11T22:41:53.896Z,14.70
2022-10-11T22:44:22.811Z,14.23
2022-10-11T22:46:50.841Z,15.40
2022-10-11T22:49:18.993Z,13.82
2022-10-11T22:51:50.186Z,11.60
2022-10-11T22:54:18.100Z,14.25
2022-10-11T22:56:47.235Z,16.05
2022-10-11T22:59:15.195Z,15.75
2022-10-11T23:02:01.639Z,12.68
2022-10-11T23:04:29.676Z,14.38
2022-10-11T23:07:01.268Z,14.40
2022-10-11T23:09:34.858Z,15.18
2022-10-11T23:12:02.798Z,15.85
2022-10-11T23:14:30.700Z,12.30
2022-10-11T23:16:58.977Z,16.92
2022-10-11T23:19:26.981Z,14.48
2022-10-11T23:21:55.007Z,16.10
2022-10-11T23:24:24.713Z,16.23
2022-10-11T23:26:52.651Z,14.70
2022-10-11T23:29:20.523Z,14.88
2022-10-11T23:31:51.145Z,12.85
2022-10-11T23:34:19.254Z,16.23
2022-10-11T23:36:47.241Z,14.98
2022-10-11T23:39:18.187Z,15.93
2022-10-11T23:41:46.153Z,15.32
2022-10-11T23:44:14.063Z,14.20
2022-10-11T23:46:42.245Z,12.70
2022-10-11T23:49:10.272Z,13.95
2022-10-11T23:51:38.277Z,14.00
2022-10-11T23:54:09.381Z,16.20
2022-10-11T23:56:37.348Z,12.63
2022-10-11T23:59:05.373Z,13.07
